createdAt,value
2019-03-26T00:00:38.664Z,99.90
2019-03-26T00:03:08.481Z,99.90
2019-03-26T00:05:38.645Z,99.90
2019-03-26T00:08:08.355Z,99.90
2019-03-26T00:10:39.768Z,99.90
2019-03-26T00:13:09.593Z,99.90
2019-03-26T00:15:39.331Z,99.90
2019-03-26T00:18:09.178Z,99.90
2019-03-26T00:38:17.085Z,99.90
2019-03-26T00:40:47.131Z,99.90
2019-03-26T00:43:17.937Z,99.90
2019-03-26T00:45:47.748Z,99.90
2019-03-26T00:48:19.912Z,99.90
2019-03-26T00:50:49.770Z,99.90
2019-03-26T00:53:19.609Z,99.90
2019-03-26T00:55:49.358Z,99.90
2019-03-26T00:58:19.133Z,99.90
2019-03-26T01:00:48.989Z,99.90
2019-03-26T01:03:18.759Z,99.90
2019-03-26T01:05:48.536Z,99.90
2019-03-26T01:08:18.220Z,99.90
2019-03-26T01:10:47.915Z,99.90
2019-03-26T01:13:17.608Z,99.90
2019-03-26T01:15:47.417Z,99.90
2019-03-26T01:18:19.197Z,99.90
2019-03-26T01:20:49.228Z,99.90
2019-03-26T01:23:18.979Z,99.90
2019-03-26T01:25:52.294Z,99.90
2019-03-26T01:28:22.108Z,99.90
2019-03-26T01:30:51.963Z,99.90
2019-03-26T01:33:21.675Z,99.90
2019-03-26T01:35:51.340Z,99.90
2019-03-26T01:38:21.128Z,99.90
2019-03-26T01:40:50.841Z,99.90
2019-03-26T01:43:20.570Z,99.90
2019-03-26T01:45:50.309Z,99.90
2019-03-26T01:48:20.057Z,99.90
2019-03-26T01:50:49.995Z,99.90
2019-03-26T01:53:20.409Z,99.90
2019-03-26T01:55:50.347Z,99.90
2019-03-26T01:58:20.104Z,99.90
2019-03-26T02:00:49.861Z,99.90
2019-03-26T02:03:19.628Z,99.90
2019-03-26T02:05:49.340Z,99.90
2019-03-26T02:08:19.103Z,99.90
2019-03-26T02:10:48.864Z,99.90
2019-03-26T02:13:18.577Z,99.90
2019-03-26T02:15:48.262Z,99.90
2019-03-26T02:18:18.029Z,99.90
2019-03-26T02:20:47.715Z,99.90
2019-03-26T02:23:17.417Z,99.90
2019-03-26T02:25:47.187Z,99.90
2019-03-26T02:28:16.955Z,99.90
2019-03-26T02:30:46.642Z,99.90
2019-03-26T02:33:16.350Z,99.90
2019-03-26T02:35:46.024Z,99.90
2019-03-26T02:38:15.798Z,99.90
2019-03-26T02:40:45.544Z,99.90
2019-03-26T02:43:15.219Z,99.90
2019-03-26T02:45:44.892Z,99.90
2019-03-26T02:48:14.919Z,99.90
2019-03-26T02:50:44.620Z,99.90
2019-03-26T02:53:14.377Z,99.90
2019-03-26T02:55:44.065Z,99.90
2019-03-26T02:58:13.756Z,99.90
2019-03-26T03:00:43.426Z,99.90
2019-03-26T03:03:13.129Z,99.90
2019-03-26T03:05:42.775Z,99.90
2019-03-26T03:08:12.246Z,99.90
2019-03-26T03:10:41.700Z,99.90
2019-03-26T03:13:11.095Z,99.90
2019-03-26T03:15:40.457Z,99.90
2019-03-26T03:18:10.044Z,99.90
2019-03-26T03:20:39.445Z,99.90
2019-03-26T03:23:09.117Z,99.90
2019-03-26T03:25:38.603Z,99.90
2019-03-26T03:28:08.071Z,99.90
2019-03-26T03:30:37.560Z,99.90
2019-03-26T03:33:07.047Z,99.90
2019-03-26T03:35:51.318Z,99.90
2019-03-26T03:38:07.801Z,99.90
2019-03-26T03:40:37.352Z,99.90
2019-03-26T03:43:06.798Z,99.90
2019-03-26T03:45:38.648Z,99.90
2019-03-26T03:48:09.455Z,99.90
2019-03-26T03:50:40.614Z,99.90
2019-03-26T03:53:10.845Z,99.90
2019-03-26T03:55:40.385Z,99.90
2019-03-26T03:58:09.917Z,99.90
2019-03-26T04:00:40.784Z,99.90
2019-03-26T04:03:10.823Z,99.90
2019-03-26T04:05:40.510Z,99.90
2019-03-26T04:08:10.044Z,99.90
2019-03-26T04:10:39.462Z,99.90
2019-03-26T04:13:09.044Z,99.90
2019-03-26T04:15:38.598Z,99.90
2019-03-26T04:18:08.114Z,99.90
2019-03-26T04:20:37.590Z,99.90
2019-03-26T04:23:07.049Z,99.90
2019-03-26T04:25:36.703Z,99.90
2019-03-26T04:28:06.221Z,99.90
2019-03-26T04:30:35.999Z,99.90
2019-03-26T04:33:05.455Z,99.90
2019-03-26T04:35:34.924Z,99.90
2019-03-26T04:38:04.453Z,99.90
2019-03-26T04:40:33.926Z,99.90
2019-03-26T04:43:03.395Z,99.90
2019-03-26T04:45:32.776Z,99.90
2019-03-26T04:48:02.169Z,99.90
2019-03-26T04:50:31.543Z,99.90
2019-03-26T04:53:00.932Z,99.90
2019-03-26T04:55:30.401Z,99.90
2019-03-26T04:57:59.780Z,99.90
2019-03-26T05:00:29.320Z,99.90
2019-03-26T05:02:58.797Z,99.90
2019-03-26T05:05:28.285Z,99.90
2019-03-26T05:07:57.687Z,99.90
2019-03-26T05:10:27.089Z,99.90
2019-03-26T05:12:56.498Z,99.90
2019-03-26T05:15:25.960Z,99.90
2019-03-26T05:17:56.803Z,99.90
2019-03-26T05:20:26.603Z,99.90
2019-03-26T05:22:56.063Z,99.90
2019-03-26T05:25:25.543Z,99.90
2019-03-26T05:27:54.965Z,99.90
2019-03-26T05:30:24.502Z,99.90
2019-03-26T05:32:53.971Z,99.90
2019-03-26T05:35:23.509Z,99.90
2019-03-26T05:37:52.869Z,99.90
2019-03-26T05:40:22.282Z,99.90
2019-03-26T05:42:51.804Z,99.90
2019-03-26T05:45:21.296Z,99.90
2019-03-26T05:47:50.671Z,99.90
2019-03-26T05:50:20.153Z,99.90
2019-03-26T05:52:49.590Z,99.90
2019-03-26T05:55:19.087Z,99.90
2019-03-26T05:57:48.617Z,99.90
2019-03-26T06:00:22.502Z,99.90
2019-03-26T06:02:52.072Z,99.90
2019-03-26T06:05:21.525Z,99.90
2019-03-26T06:07:50.998Z,99.90
2019-03-26T06:10:20.444Z,99.90
2019-03-26T06:12:50.367Z,99.90
2019-03-26T06:15:19.912Z,99.90
2019-03-26T06:17:49.449Z,99.90
2019-03-26T06:20:19.013Z,99.90
2019-03-26T06:22:48.411Z,99.90
2019-03-26T06:25:17.874Z,99.90
2019-03-26T06:27:50.199Z,99.90
2019-03-26T06:30:19.741Z,99.90
2019-03-26T06:32:49.444Z,99.90
2019-03-26T06:35:18.928Z,99.90
2019-03-26T06:37:48.504Z,99.90
2019-03-26T06:40:18.294Z,99.90
2019-03-26T06:42:47.862Z,99.90
2019-03-26T06:45:17.349Z,99.90
2019-03-26T06:47:46.870Z,99.90
2019-03-26T06:50:16.584Z,99.90
2019-03-26T06:52:46.201Z,99.90
2019-03-26T06:55:16.086Z,99.90
2019-03-26T06:57:45.492Z,99.90
2019-03-26T07:00:18.331Z,99.90
2019-03-26T07:02:47.889Z,99.90
2019-03-26T07:05:17.525Z,99.90
2019-03-26T07:07:48.037Z,99.90
2019-03-26T07:10:20.610Z,99.90
2019-03-26T07:12:49.992Z,99.90
2019-03-26T07:15:19.537Z,99.90
2019-03-26T07:17:52.502Z,99.90
2019-03-26T07:20:22.232Z,99.90
2019-03-26T07:22:56.337Z,99.90
2019-03-26T07:25:26.148Z,99.90
2019-03-26T07:27:55.814Z,99.90
2019-03-26T07:30:56.056Z,99.90
2019-03-26T07:33:25.460Z,99.90
2019-03-26T07:35:54.990Z,99.90
2019-03-26T07:38:24.453Z,99.90
2019-03-26T07:40:53.925Z,99.90
2019-03-26T07:43:23.496Z,99.90
2019-03-26T07:45:52.973Z,99.90
2019-03-26T07:48:22.370Z,99.90
2019-03-26T07:50:51.768Z,99.90
2019-03-26T07:53:21.220Z,99.90
2019-03-26T07:55:50.675Z,99.90
2019-03-26T07:58:20.230Z,99.90
2019-03-26T08:00:49.973Z,99.90
2019-03-26T08:03:21.220Z,99.90
2019-03-26T08:05:50.984Z,99.90
2019-03-26T08:08:20.543Z,99.90
2019-03-26T08:10:50.061Z,97.50
2019-03-26T08:13:19.518Z,95.80
2019-03-26T08:16:17.234Z,97.90
2019-03-26T08:18:47.287Z,97.10
2019-03-26T08:21:16.758Z,99.50
2019-03-26T08:23:48.573Z,98.80
2019-03-26T08:26:18.674Z,99.80
2019-03-26T08:28:48.086Z,99.90
2019-03-26T08:31:17.633Z,99.90
2019-03-26T08:33:47.221Z,99.90
2019-03-26T08:36:16.705Z,99.90
2019-03-26T08:38:46.211Z,99.90
2019-03-26T08:41:15.866Z,99.90
2019-03-26T08:43:45.680Z,99.90
2019-03-26T08:46:15.130Z,99.90
2019-03-26T08:48:46.919Z,98.10
2019-03-26T08:51:16.379Z,98.30
2019-03-26T08:53:47.332Z,96.50
2019-03-26T08:56:16.839Z,93.70
2019-03-26T08:58:46.360Z,92.90
2019-03-26T09:01:15.778Z,91.10
2019-03-26T09:03:45.173Z,88.00
2019-03-26T09:06:14.715Z,84.20
2019-03-26T09:08:44.186Z,85.20
2019-03-26T09:11:14.032Z,84.10
2019-03-26T09:13:43.440Z,82.50
2019-03-26T09:16:12.917Z,82.00
2019-03-26T09:18:42.430Z,78.20
2019-03-26T09:21:11.920Z,74.30
2019-03-26T09:23:41.389Z,71.60
2019-03-26T09:26:10.877Z,74.00
2019-03-26T09:28:40.348Z,73.10
2019-03-26T09:31:09.872Z,70.30
2019-03-26T09:33:42.230Z,73.00
2019-03-26T09:36:11.950Z,74.70
2019-03-26T09:38:41.507Z,75.60
2019-03-26T09:41:11.032Z,75.00
2019-03-26T09:43:40.502Z,79.70
2019-03-26T09:46:09.948Z,73.70
2019-03-26T09:48:39.357Z,72.70
2019-03-26T09:51:10.829Z,73.80
2019-03-26T09:53:39.945Z,76.10
2019-03-26T09:56:09.490Z,74.50
2019-03-26T09:58:38.988Z,74.10
2019-03-26T10:01:08.480Z,70.40
2019-03-26T10:03:40.872Z,70.10
2019-03-26T10:06:22.579Z,74.50
2019-03-26T10:08:51.711Z,65.20
2019-03-26T10:11:12.491Z,61.70
2019-03-26T10:13:41.989Z,60.60
2019-03-26T10:16:11.374Z,61.10
2019-03-26T10:18:40.824Z,62.10
2019-03-26T10:21:10.387Z,64.60
2019-03-26T10:23:39.995Z,62.40
2019-03-26T10:26:09.475Z,57.60
2019-03-26T10:28:39.016Z,57.40
2019-03-26T10:31:08.567Z,56.30
2019-03-26T10:33:38.012Z,58.10
2019-03-26T10:36:07.486Z,55.10
2019-03-26T10:38:38.459Z,57.50
2019-03-26T10:41:07.990Z,58.90
2019-03-26T10:43:37.546Z,57.20
2019-03-26T10:46:07.127Z,53.60
2019-03-26T10:48:36.634Z,51.80
2019-03-26T10:51:06.168Z,52.10
2019-03-26T10:53:35.666Z,50.40
2019-03-26T10:56:05.244Z,49.50
2019-03-26T10:58:34.734Z,50.10
2019-03-26T11:01:04.485Z,50.80
2019-03-26T11:03:35.007Z,49.80
2019-03-26T11:06:04.625Z,49.40
2019-03-26T11:08:34.167Z,48.20
2019-03-26T11:11:04.196Z,48.90
2019-03-26T11:13:33.650Z,49.00
2019-03-26T11:16:03.241Z,49.80
2019-03-26T11:18:32.652Z,48.50
2019-03-26T11:21:03.191Z,48.00
2019-03-26T11:23:33.038Z,47.80
2019-03-26T11:26:02.737Z,48.70
2019-03-26T11:28:32.239Z,46.60
2019-03-26T11:31:02.087Z,47.10
2019-03-26T11:33:31.720Z,47.20
2019-03-26T11:36:01.348Z,47.40
2019-03-26T11:38:30.769Z,46.10
2019-03-26T11:41:00.190Z,45.40
2019-03-26T11:43:29.600Z,46.80
2019-03-26T11:45:59.083Z,48.90
2019-03-26T11:48:28.576Z,47.50
2019-03-26T11:50:57.948Z,47.00
2019-03-26T11:53:28.001Z,48.20
2019-03-26T11:55:57.380Z,47.80
2019-03-26T11:58:30.872Z,48.20
2019-03-26T12:00:58.256Z,47.50
2019-03-26T12:03:27.740Z,46.40
2019-03-26T12:05:57.292Z,46.40
2019-03-26T12:08:26.786Z,47.00
2019-03-26T12:10:56.254Z,47.50
2019-03-26T12:13:25.719Z,47.70
2019-03-26T12:15:55.214Z,48.10
2019-03-26T12:18:24.681Z,48.00
2019-03-26T12:20:54.269Z,46.80
2019-03-26T12:23:23.813Z,46.00
2019-03-26T12:25:53.317Z,46.50
2019-03-26T12:28:22.796Z,45.60
2019-03-26T12:30:52.301Z,45.80
2019-03-26T12:33:21.796Z,45.90
2019-03-26T12:35:51.362Z,47.20
2019-03-26T12:38:24.057Z,46.80
2019-03-26T12:40:53.529Z,47.50
2019-03-26T12:43:23.045Z,48.40
2019-03-26T12:45:53.194Z,47.30
2019-03-26T12:48:23.634Z,48.10
2019-03-26T12:50:53.260Z,48.50
2019-03-26T12:53:23.741Z,49.00
2019-03-26T12:55:53.287Z,48.10
2019-03-26T12:58:31.716Z,47.40
2019-03-26T13:00:54.134Z,47.60
2019-03-26T13:03:23.533Z,48.50
2019-03-26T13:05:53.461Z,46.60
2019-03-26T13:08:22.934Z,46.50
2019-03-26T13:10:54.080Z,46.80
2019-03-26T13:13:23.828Z,47.60
2019-03-26T13:15:53.432Z,47.20
2019-03-26T13:18:23.016Z,47.40
2019-03-26T13:20:52.571Z,48.80
2019-03-26T13:23:21.959Z,49.70
2019-03-26T13:25:53.392Z,52.30
2019-03-26T13:28:23.449Z,49.90
2019-03-26T13:30:58.839Z,50.50
2019-03-26T13:33:33.699Z,49.80
2019-03-26T13:36:06.860Z,49.10
2019-03-26T13:38:43.132Z,49.60
2019-03-26T13:41:17.134Z,50.10
2019-03-26T13:43:46.757Z,50.30
2019-03-26T13:46:16.528Z,48.00
2019-03-26T13:48:46.405Z,48.80
2019-03-26T13:51:16.199Z,47.90
2019-03-26T13:53:45.990Z,46.40
2019-03-26T13:56:15.502Z,46.70
2019-03-26T13:58:54.239Z,47.30
2019-03-26T14:01:24.235Z,47.60
2019-03-26T14:04:00.296Z,47.90
2019-03-26T14:06:32.458Z,44.50
2019-03-26T14:09:01.963Z,44.50
2019-03-26T14:11:33.210Z,43.30
2019-03-26T14:14:03.308Z,43.20
2019-03-26T14:16:32.980Z,43.80
2019-03-26T14:19:04.196Z,43.90
2019-03-26T14:21:42.022Z,44.10
2019-03-26T14:24:13.281Z,46.20
2019-03-26T14:26:43.423Z,46.50
2019-03-26T14:29:13.270Z,47.00
2019-03-26T14:31:42.944Z,48.40
2019-03-26T14:34:12.612Z,49.10
2019-03-26T14:36:42.285Z,48.40
2019-03-26T14:39:12.248Z,48.90
2019-03-26T14:41:41.949Z,49.10
2019-03-26T14:44:12.402Z,49.70
2019-03-26T14:46:43.996Z,50.50
2019-03-26T14:49:14.621Z,50.40
2019-03-26T14:51:44.369Z,50.90
2019-03-26T14:54:14.044Z,50.70
2019-03-26T14:56:45.384Z,48.10
2019-03-26T14:59:15.240Z,45.90
2019-03-26T15:01:45.017Z,46.10
2019-03-26T15:04:14.598Z,46.70
2019-03-26T15:06:46.582Z,47.40
2019-03-26T15:09:16.276Z,48.10
2019-03-26T15:11:46.147Z,49.00
2019-03-26T15:14:15.883Z,49.90
2019-03-26T15:16:46.767Z,50.80
2019-03-26T15:19:16.627Z,51.50
2019-03-26T15:21:46.136Z,51.90
2019-03-26T15:24:15.524Z,52.60
2019-03-26T15:26:45.155Z,52.30
2019-03-26T15:29:14.909Z,52.40
2019-03-26T15:31:46.782Z,50.70
2019-03-26T15:34:16.260Z,50.30
2019-03-26T15:36:45.773Z,49.90
2019-03-26T15:39:15.424Z,50.00
2019-03-26T15:41:44.919Z,50.30
2019-03-26T15:44:14.481Z,51.00
2019-03-26T15:46:44.091Z,51.60
2019-03-26T15:49:13.705Z,51.20
2019-03-26T15:51:43.393Z,51.30
2019-03-26T15:54:13.030Z,52.30
2019-03-26T15:56:42.530Z,51.80
2019-03-26T15:59:11.934Z,52.60
2019-03-26T16:01:43.302Z,52.60
2019-03-26T16:04:12.917Z,53.30
2019-03-26T16:06:42.857Z,53.10
2019-03-26T16:09:14.912Z,53.80
2019-03-26T16:11:44.466Z,53.60
2019-03-26T16:14:13.972Z,54.60
2019-03-26T16:16:43.489Z,54.40
2019-03-26T16:19:13.047Z,54.10
2019-03-26T16:21:42.630Z,53.70
2019-03-26T16:24:12.585Z,53.80
2019-03-26T16:26:42.330Z,53.10
2019-03-26T16:29:11.850Z,53.30
2019-03-26T16:31:42.060Z,53.40
2019-03-26T16:34:11.576Z,53.70
2019-03-26T16:36:41.142Z,54.30
2019-03-26T16:39:10.773Z,54.20
2019-03-26T16:41:49.033Z,54.30
2019-03-26T16:44:11.628Z,54.20
2019-03-26T16:46:41.240Z,54.60
2019-03-26T16:49:11.035Z,54.70
2019-03-26T16:51:40.559Z,55.40
2019-03-26T16:54:10.185Z,55.10
2019-03-26T16:56:39.741Z,55.30
2019-03-26T16:59:09.302Z,56.20
2019-03-26T17:01:38.688Z,56.60
2019-03-26T17:04:08.254Z,56.80
2019-03-26T17:06:37.789Z,57.00
2019-03-26T17:09:08.260Z,57.10
2019-03-26T17:11:37.743Z,57.70
2019-03-26T17:14:07.136Z,57.70
2019-03-26T17:16:36.696Z,58.30
2019-03-26T17:19:06.184Z,58.30
2019-03-26T17:21:35.556Z,58.70
2019-03-26T17:24:05.078Z,58.80
2019-03-26T17:26:34.574Z,59.50
2019-03-26T17:29:04.194Z,59.70
2019-03-26T17:31:34.563Z,60.20
2019-03-26T17:34:04.176Z,60.60
2019-03-26T17:36:33.778Z,61.30
2019-03-26T17:39:08.442Z,61.60
2019-03-26T17:41:38.093Z,63.20
2019-03-26T17:44:07.975Z,64.00
2019-03-26T17:46:37.478Z,63.20
2019-03-26T17:49:07.240Z,63.50
2019-03-26T17:51:36.801Z,64.50
2019-03-26T17:54:06.425Z,65.00
2019-03-26T17:56:36.181Z,65.40
2019-03-26T17:59:05.883Z,65.30
2019-03-26T18:01:35.349Z,65.70
2019-03-26T18:04:05.140Z,65.90
2019-03-26T18:06:36.673Z,66.50
2019-03-26T18:09:08.548Z,65.90
2019-03-26T18:11:38.113Z,66.90
2019-03-26T18:14:07.715Z,67.30
2019-03-26T18:16:37.178Z,67.40
2019-03-26T18:19:06.721Z,67.40
2019-03-26T18:21:50.598Z,67.50
2019-03-26T18:24:08.540Z,67.70
2019-03-26T18:26:38.111Z,68.00
2019-03-26T18:29:07.689Z,68.40
2019-03-26T18:31:37.115Z,68.60
2019-03-26T18:34:06.804Z,69.10
2019-03-26T18:36:36.416Z,69.50
2019-03-26T18:39:07.966Z,69.60
2019-03-26T18:41:37.503Z,70.00
2019-03-26T18:44:07.017Z,71.00
2019-03-26T18:46:36.688Z,71.00
2019-03-26T18:49:06.300Z,71.50
2019-03-26T18:51:37.225Z,71.20
2019-03-26T18:54:06.863Z,71.40
2019-03-26T18:56:37.342Z,71.80
2019-03-26T18:59:06.821Z,72.20
2019-03-26T19:01:36.225Z,72.60
2019-03-26T19:04:05.876Z,73.10
2019-03-26T19:06:35.458Z,73.10
2019-03-26T19:09:06.959Z,73.90
2019-03-26T19:11:36.387Z,74.20
2019-03-26T19:14:06.276Z,75.70
2019-03-26T19:16:35.830Z,76.10
2019-03-26T19:19:06.773Z,76.70
2019-03-26T19:21:36.257Z,76.90
2019-03-26T19:24:05.767Z,77.10
2019-03-26T19:26:35.348Z,77.80
2019-03-26T19:29:04.976Z,77.90
2019-03-26T19:31:34.509Z,78.60
2019-03-26T19:34:03.981Z,79.10
2019-03-26T19:36:33.469Z,79.50
2019-03-26T19:39:06.691Z,79.80
2019-03-26T19:41:36.434Z,80.40
2019-03-26T19:44:05.995Z,81.10
2019-03-26T19:46:38.302Z,81.60
2019-03-26T19:49:07.803Z,81.90
2019-03-26T19:51:37.294Z,82.40
2019-03-26T19:54:08.592Z,82.80
2019-03-26T19:56:38.262Z,83.30
2019-03-26T19:59:07.801Z,84.00
2019-03-26T20:01:38.578Z,84.00
2019-03-26T20:04:08.041Z,84.80
2019-03-26T20:06:37.667Z,85.10
2019-03-26T20:09:07.765Z,85.60
2019-03-26T20:11:37.249Z,85.00
2019-03-26T20:14:06.832Z,85.80
2019-03-26T20:16:42.019Z,86.60
2019-03-26T20:19:09.892Z,86.80
2019-03-26T20:21:39.377Z,87.00
2019-03-26T20:24:08.936Z,87.10
2019-03-26T20:26:38.486Z,87.20
2019-03-26T20:29:08.118Z,87.20
2019-03-26T20:31:37.620Z,87.50
2019-03-26T20:34:07.088Z,88.00
2019-03-26T20:36:36.572Z,87.30
2019-03-26T20:39:07.516Z,87.70
2019-03-26T20:41:37.065Z,87.80
2019-03-26T20:44:06.632Z,88.00
2019-03-26T20:46:36.221Z,88.80
2019-03-26T20:49:05.920Z,87.80
2019-03-26T20:51:35.534Z,87.40
2019-03-26T20:54:05.208Z,87.30
2019-03-26T20:56:35.432Z,86.90
2019-03-26T20:59:05.372Z,86.90
2019-03-26T21:01:35.121Z,87.90
2019-03-26T21:04:04.675Z,87.40
2019-03-26T21:06:34.196Z,86.20
2019-03-26T21:09:05.377Z,87.40
2019-03-26T21:11:37.716Z,87.50
2019-03-26T21:14:07.366Z,87.00
2019-03-26T21:16:36.752Z,87.90
2019-03-26T21:19:06.324Z,87.60
2019-03-26T21:21:37.389Z,88.30
2019-03-26T21:24:06.859Z,88.10
2019-03-26T21:26:36.326Z,88.50
2019-03-26T21:29:05.711Z,89.40
2019-03-26T21:31:35.100Z,90.10
2019-03-26T21:34:04.669Z,90.00
2019-03-26T21:36:34.043Z,90.30
2019-03-26T21:39:04.634Z,90.50
2019-03-26T21:41:34.185Z,90.70
2019-03-26T21:44:12.592Z,90.70
2019-03-26T21:46:42.080Z,90.70
2019-03-26T21:49:11.647Z,91.00
2019-03-26T21:51:41.801Z,91.30
2019-03-26T21:54:11.457Z,91.30
2019-03-26T21:56:40.841Z,91.60
2019-03-26T21:59:10.211Z,91.90
2019-03-26T22:01:39.663Z,92.20
2019-03-26T22:04:09.047Z,92.40
2019-03-26T22:06:38.492Z,92.50
2019-03-26T22:09:08.248Z,92.70
2019-03-26T22:11:49.113Z,92.80
2019-03-26T22:14:18.068Z,93.10
2019-03-26T22:16:40.180Z,93.00
2019-03-26T22:19:09.716Z,93.40
2019-03-26T22:21:40.828Z,93.90
2019-03-26T22:24:10.231Z,94.00
2019-03-26T22:26:40.987Z,94.20
2019-03-26T22:29:11.275Z,94.70
2019-03-26T22:31:40.880Z,94.80
2019-03-26T22:34:10.256Z,95.00
2019-03-26T22:36:39.729Z,95.00
2019-03-26T22:39:09.316Z,95.50
2019-03-26T22:41:38.719Z,95.80
2019-03-26T22:44:08.195Z,96.20
2019-03-26T22:46:37.615Z,96.70
2019-03-26T22:49:07.038Z,96.90
2019-03-26T22:51:36.599Z,97.30
2019-03-26T22:54:05.996Z,98.10
2019-03-26T22:56:35.478Z,98.00
2019-03-26T22:59:04.960Z,98.70
2019-03-26T23:01:34.508Z,98.90
2019-03-26T23:04:04.053Z,98.70
2019-03-26T23:06:39.657Z,99.20
2019-03-26T23:09:10.486Z,99.60
2019-03-26T23:11:39.980Z,99.90
2019-03-26T23:14:09.463Z,99.90
2019-03-26T23:16:38.872Z,99.90
2019-03-26T23:19:08.320Z,99.90
2019-03-26T23:21:37.872Z,99.90
2019-03-26T23:24:07.404Z,99.90
2019-03-26T23:26:36.964Z,99.90
2019-03-26T23:29:08.061Z,99.90
2019-03-26T23:31:38.564Z,99.90
2019-03-26T23:34:07.988Z,99.90
2019-03-26T23:36:38.798Z,99.90
2019-03-26T23:39:08.273Z,99.90
2019-03-26T23:41:39.692Z,99.90
2019-03-26T23:44:09.008Z,99.90
2019-03-26T23:46:38.455Z,99.90
2019-03-26T23:49:07.997Z,99.90
2019-03-26T23:51:37.472Z,99.90
2019-03-26T23:54:06.872Z,99.90
2019-03-26T23:56:36.281Z,99.90
2019-03-26T23:59:05.679Z,99.90
